createdAt,value
2022-10-08T00:01:31.473Z,14.40
2022-10-08T00:04:00.041Z,14.40
2022-10-08T00:06:31.056Z,14.50
2022-10-08T00:09:02.900Z,14.60
2022-10-08T00:11:34.160Z,14.70
2022-10-08T00:14:03.317Z,14.70
2022-10-08T00:16:33.639Z,14.80
2022-10-08T00:19:04.861Z,14.80
2022-10-08T00:21:34.722Z,14.90
2022-10-08T00:24:05.857Z,14.90
2022-10-08T00:26:39.784Z,15.00
2022-10-08T00:29:10.402Z,15.00
2022-10-08T00:31:40.547Z,15.00
2022-10-08T00:34:10.627Z,15.00
2022-10-08T00:36:40.294Z,15.10
2022-10-08T00:39:13.447Z,15.00
2022-10-08T00:41:42.443Z,15.00
2022-10-08T00:44:51.485Z,15.00
2022-10-08T00:47:25.841Z,15.00
2022-10-08T00:49:57.146Z,15.00
2022-10-08T00:52:28.115Z,15.00
2022-10-08T00:54:58.267Z,15.00
2022-10-08T00:57:28.836Z,14.90
2022-10-08T00:59:57.563Z,14.90
2022-10-08T01:02:25.968Z,14.90
2022-10-08T01:04:54.300Z,14.90
2022-10-08T01:07:27.443Z,14.80
2022-10-08T01:10:02.751Z,14.80
2022-10-08T01:12:45.754Z,14.80
2022-10-08T01:15:24.029Z,14.70
2022-10-08T01:18:01.241Z,14.70
2022-10-08T01:20:35.756Z,14.60
2022-10-08T01:23:25.332Z,14.60
2022-10-08T01:26:03.719Z,14.50
2022-10-08T01:28:38.819Z,14.50
2022-10-08T01:31:10.115Z,14.60
2022-10-08T01:33:44.044Z,14.60
2022-10-08T01:36:13.675Z,14.60
2022-10-08T01:38:47.623Z,14.80
2022-10-08T01:41:18.501Z,14.80
2022-10-08T01:43:52.611Z,14.90
2022-10-08T01:46:24.697Z,15.00
2022-10-08T01:48:57.643Z,15.10
2022-10-08T01:51:32.940Z,15.20
2022-10-08T01:54:04.417Z,15.20
2022-10-08T01:56:35.424Z,15.30
2022-10-08T01:59:11.526Z,15.40
2022-10-08T02:02:00.933Z,15.50
2022-10-08T02:04:35.056Z,15.50
2022-10-08T02:07:07.525Z,15.60
2022-10-08T02:09:37.753Z,15.70
2022-10-08T02:12:06.780Z,15.80
2022-10-08T02:14:38.007Z,15.80
2022-10-08T02:17:21.602Z,15.90
2022-10-08T02:19:56.048Z,15.90
2022-10-08T02:22:28.835Z,15.90
2022-10-08T02:25:02.131Z,15.90
2022-10-08T02:27:42.024Z,15.90
2022-10-08T02:30:14.129Z,16.00
2022-10-08T02:32:51.275Z,15.90
2022-10-08T02:35:25.413Z,16.00
2022-10-08T02:37:58.799Z,16.00
2022-10-08T02:40:29.142Z,16.10
2022-10-08T02:43:02.484Z,16.10
2022-10-08T02:45:38.594Z,16.20
2022-10-08T02:48:11.898Z,16.20
2022-10-08T02:50:44.050Z,16.30
2022-10-08T02:53:14.719Z,16.30
2022-10-08T02:55:50.226Z,16.40
2022-10-08T02:58:18.806Z,16.40
2022-10-08T03:00:54.041Z,16.50
2022-10-08T03:03:28.936Z,16.50
2022-10-08T03:05:58.188Z,16.50
2022-10-08T03:08:27.260Z,16.60
2022-10-08T03:10:56.209Z,16.60
2022-10-08T03:13:25.617Z,16.60
2022-10-08T03:15:56.197Z,16.60
2022-10-08T03:18:26.304Z,16.60
2022-10-08T03:20:56.208Z,16.70
2022-10-08T03:23:25.733Z,16.70
2022-10-08T03:25:54.457Z,16.70
2022-10-08T03:28:22.765Z,16.70
2022-10-08T03:30:51.172Z,16.70
2022-10-08T03:33:20.823Z,16.70
2022-10-08T03:35:49.157Z,16.70
2022-10-08T03:38:17.582Z,16.70
2022-10-08T03:40:55.516Z,16.60
2022-10-08T03:43:24.196Z,16.60
2022-10-08T03:45:53.697Z,16.60
2022-10-08T03:48:23.995Z,16.60
2022-10-08T03:50:53.725Z,16.60
2022-10-08T03:53:22.500Z,16.60
2022-10-08T03:55:51.454Z,16.60
2022-10-08T03:58:19.731Z,16.50
2022-10-08T04:00:58.305Z,16.50
2022-10-08T04:03:29.084Z,16.50
2022-10-08T04:05:57.666Z,16.40
2022-10-08T04:08:26.823Z,16.30
2022-10-08T04:10:55.359Z,16.20
2022-10-08T04:13:23.908Z,16.20
2022-10-08T04:15:52.161Z,16.00
2022-10-08T04:18:20.854Z,16.00
2022-10-08T04:20:50.719Z,16.00
2022-10-08T04:23:18.979Z,15.90
2022-10-08T04:25:51.860Z,15.90
2022-10-08T04:28:20.666Z,16.00
2022-10-08T04:30:57.351Z,16.00
2022-10-08T04:33:26.285Z,15.90
2022-10-08T04:36:00.099Z,16.00
2022-10-08T04:38:29.537Z,15.90
2022-10-08T04:41:05.419Z,15.90
2022-10-08T04:43:33.932Z,15.90
2022-10-08T04:46:02.313Z,15.90
2022-10-08T04:48:30.991Z,15.90
2022-10-08T04:51:08.023Z,15.90
2022-10-08T04:53:38.892Z,15.90
2022-10-08T04:56:13.356Z,15.90
2022-10-08T04:58:42.191Z,15.90
2022-10-08T05:01:12.200Z,15.80
2022-10-08T05:03:42.362Z,15.80
2022-10-08T05:06:12.735Z,15.80
2022-10-08T05:08:40.970Z,15.80
2022-10-08T05:11:10.135Z,15.80
2022-10-08T05:13:38.913Z,15.80
2022-10-08T05:16:08.457Z,15.80
2022-10-08T05:18:38.049Z,15.70
2022-10-08T05:21:07.723Z,15.70
2022-10-08T05:23:38.181Z,15.50
2022-10-08T05:26:13.804Z,15.40
2022-10-08T05:28:42.568Z,15.30
2022-10-08T05:31:11.014Z,15.20
2022-10-08T05:33:39.829Z,15.00
2022-10-08T05:36:13.756Z,14.90
2022-10-08T05:38:43.685Z,14.80
2022-10-08T05:41:14.749Z,14.70
2022-10-08T05:43:43.568Z,14.60
2022-10-08T05:46:12.491Z,14.50
2022-10-08T05:48:41.105Z,14.40
2022-10-08T05:51:11.193Z,14.30
2022-10-08T05:53:41.959Z,14.30
2022-10-08T05:56:13.413Z,14.30
2022-10-08T05:58:42.432Z,14.30
2022-10-08T06:01:14.678Z,14.30
2022-10-08T06:03:43.424Z,14.30
2022-10-08T06:06:13.002Z,14.30
2022-10-08T06:08:41.702Z,14.30
2022-10-08T06:11:11.387Z,14.40
2022-10-08T06:13:39.951Z,14.40
2022-10-08T06:16:10.284Z,14.40
2022-10-08T06:18:40.732Z,14.50
2022-10-08T06:21:11.424Z,14.50
2022-10-08T06:23:41.200Z,14.60
2022-10-08T06:26:11.769Z,14.70
2022-10-08T06:28:40.573Z,14.70
2022-10-08T06:31:09.835Z,14.80
2022-10-08T06:33:38.359Z,14.90
2022-10-08T06:36:07.727Z,14.90
2022-10-08T06:38:36.086Z,15.00
2022-10-08T06:41:04.450Z,15.10
2022-10-08T06:43:34.192Z,15.20
2022-10-08T06:46:05.847Z,15.30
2022-10-08T06:48:34.663Z,15.40
2022-10-08T06:51:05.255Z,15.40
2022-10-08T06:53:34.639Z,15.50
2022-10-08T06:56:04.917Z,15.60
2022-10-08T06:58:36.288Z,15.70
2022-10-08T07:01:06.603Z,15.90
2022-10-08T07:03:35.500Z,15.90
2022-10-08T07:06:05.376Z,16.10
2022-10-08T07:08:33.870Z,16.20
2022-10-08T07:11:06.260Z,16.30
2022-10-08T07:13:37.183Z,16.40
2022-10-08T07:16:07.754Z,16.50
2022-10-08T07:18:38.006Z,16.60
2022-10-08T07:21:07.692Z,16.60
2022-10-08T07:23:36.208Z,16.70
2022-10-08T07:26:06.878Z,16.80
2022-10-08T07:28:38.248Z,16.80
2022-10-08T07:31:07.688Z,17.00
2022-10-08T07:33:36.123Z,17.10
2022-10-08T07:36:10.053Z,17.20
2022-10-08T07:38:39.307Z,17.30
2022-10-08T07:41:08.571Z,17.30
2022-10-08T07:43:41.855Z,17.30
2022-10-08T07:46:11.940Z,17.30
2022-10-08T07:48:40.649Z,17.40
2022-10-08T07:51:10.818Z,17.50
2022-10-08T07:53:39.374Z,17.60
2022-10-08T07:56:09.579Z,17.70
2022-10-08T07:58:40.045Z,17.90
2022-10-08T08:01:12.699Z,18.10
2022-10-08T08:03:41.225Z,18.30
2022-10-08T08:06:12.587Z,18.50
2022-10-08T08:08:42.826Z,18.60
2022-10-08T08:11:13.819Z,18.80
2022-10-08T08:13:44.193Z,19.00
2022-10-08T08:16:15.016Z,19.10
2022-10-08T08:18:45.570Z,19.20
2022-10-08T08:21:15.784Z,19.20
2022-10-08T08:23:45.999Z,19.30
2022-10-08T08:26:16.351Z,19.30
2022-10-08T08:28:46.208Z,19.40
2022-10-08T08:31:17.310Z,19.40
2022-10-08T08:33:50.949Z,19.40
2022-10-08T08:36:20.268Z,19.40
2022-10-08T08:38:48.696Z,19.40
2022-10-08T08:41:30.955Z,19.40
2022-10-08T08:44:02.515Z,19.50
2022-10-08T08:46:36.436Z,19.50
2022-10-08T08:49:16.236Z,19.50
2022-10-08T08:51:46.886Z,19.50
2022-10-08T08:54:15.552Z,19.60
2022-10-08T08:56:45.625Z,19.60
2022-10-08T08:59:27.858Z,19.60
2022-10-08T09:02:00.221Z,19.70
2022-10-08T09:04:44.315Z,19.70
2022-10-08T09:07:37.482Z,19.90
2022-10-08T09:10:09.486Z,19.90
2022-10-08T09:12:39.869Z,20.00
2022-10-08T09:15:18.718Z,20.10
2022-10-08T09:17:51.695Z,20.10
2022-10-08T09:20:22.783Z,20.20
2022-10-08T09:22:52.388Z,20.20
2022-10-08T09:25:23.512Z,20.10
2022-10-08T09:27:54.519Z,20.10
2022-10-08T09:30:36.488Z,20.00
2022-10-08T09:33:18.531Z,19.90
2022-10-08T09:35:49.305Z,19.80
2022-10-08T09:38:23.178Z,19.70
2022-10-08T09:41:02.917Z,19.60
2022-10-08T09:43:31.987Z,19.50
2022-10-08T09:46:05.699Z,19.50
2022-10-08T09:48:34.137Z,19.40
2022-10-08T09:51:06.017Z,19.40
2022-10-08T09:53:41.302Z,19.50
2022-10-08T09:56:11.071Z,19.50
2022-10-08T09:58:49.908Z,19.50
2022-10-08T10:01:20.382Z,19.60
2022-10-08T10:03:55.005Z,19.60
2022-10-08T10:06:29.049Z,19.60
2022-10-08T10:09:03.864Z,19.60
2022-10-08T10:11:38.420Z,19.60
2022-10-08T10:14:15.770Z,19.60
2022-10-08T10:16:47.789Z,19.60
2022-10-08T10:19:21.538Z,19.70
2022-10-08T10:21:57.869Z,19.70
2022-10-08T10:24:39.371Z,19.90
2022-10-08T10:27:13.709Z,20.20
2022-10-08T10:29:57.570Z,20.60
2022-10-08T10:32:32.332Z,20.90
2022-10-08T10:35:07.051Z,21.00
2022-10-08T10:37:44.956Z,21.00
2022-10-08T10:40:32.502Z,21.30
2022-10-08T10:43:18.517Z,21.60
2022-10-08T10:45:52.779Z,21.90
2022-10-08T10:48:22.671Z,22.40
2022-10-08T10:51:22.563Z,22.80
2022-10-08T10:54:04.822Z,23.10
2022-10-08T10:56:38.323Z,23.20
2022-10-08T10:59:20.196Z,23.30
2022-10-08T11:01:55.070Z,23.90
2022-10-08T11:04:39.270Z,24.50
2022-10-08T11:07:25.098Z,25.00
2022-10-08T11:09:59.370Z,25.50
2022-10-08T11:12:35.487Z,25.80
2022-10-08T11:15:15.195Z,25.30
2022-10-08T11:17:56.287Z,25.10
2022-10-08T11:20:45.229Z,25.30
2022-10-08T11:23:24.957Z,25.60
2022-10-08T11:28:53.095Z,25.80
2022-10-08T11:31:32.250Z,25.80
2022-10-08T11:34:01.308Z,26.30
2022-10-08T11:36:45.078Z,26.70
2022-10-08T11:39:19.341Z,27.20
2022-10-08T11:41:53.510Z,27.40
2022-10-08T11:44:22.639Z,27.80
2022-10-08T11:46:51.328Z,28.20
2022-10-08T11:49:48.209Z,28.50
2022-10-08T11:52:17.925Z,28.70
2022-10-08T11:54:55.632Z,29.00
2022-10-08T12:00:47.199Z,28.30
2022-10-08T12:03:24.771Z,28.10
2022-10-08T12:05:55.186Z,28.60
2022-10-08T12:08:51.726Z,28.90
2022-10-08T12:11:52.037Z,29.00
2022-10-08T12:14:34.258Z,28.80
2022-10-08T12:17:09.907Z,29.20
2022-10-08T12:20:20.064Z,29.70
2022-10-08T12:23:06.777Z,29.90
2022-10-08T12:25:44.296Z,30.00
2022-10-08T12:28:47.757Z,30.40
2022-10-08T12:31:31.693Z,30.80
2022-10-08T12:34:03.169Z,31.20
2022-10-08T12:36:41.205Z,31.80
2022-10-08T12:39:17.631Z,32.40
2022-10-08T12:41:58.548Z,32.60
2022-10-08T12:44:41.815Z,32.70
2022-10-08T12:47:23.863Z,31.90
2022-10-08T12:49:58.340Z,31.30
2022-10-08T12:52:27.910Z,31.40
2022-10-08T12:54:58.792Z,31.60
2022-10-08T12:57:33.864Z,31.80
2022-10-08T13:00:08.308Z,31.60
2022-10-08T13:02:39.658Z,31.30
2022-10-08T13:05:25.569Z,31.40
2022-10-08T13:07:54.542Z,31.40
2022-10-08T13:10:24.840Z,31.40
2022-10-08T13:13:06.081Z,31.70
2022-10-08T13:15:35.654Z,32.00
2022-10-08T13:18:14.758Z,32.20
2022-10-08T13:20:57.892Z,31.70
2022-10-08T13:23:27.145Z,31.30
2022-10-08T13:25:55.416Z,31.10
2022-10-08T13:28:48.285Z,31.00
2022-10-08T13:31:24.273Z,30.50
2022-10-08T13:33:52.936Z,30.30
2022-10-08T13:36:23.641Z,30.70
2022-10-08T13:38:52.073Z,31.30
2022-10-08T13:41:24.175Z,32.10
2022-10-08T13:43:54.233Z,32.60
2022-10-08T13:46:22.597Z,32.90
2022-10-08T13:48:51.212Z,33.10
2022-10-08T13:51:19.485Z,33.20
2022-10-08T13:53:47.792Z,33.20
2022-10-08T13:56:18.146Z,33.10
2022-10-08T13:58:46.428Z,33.30
2022-10-08T14:01:16.420Z,33.40
2022-10-08T14:03:44.712Z,33.00
2022-10-08T14:06:13.185Z,32.90
2022-10-08T14:08:41.476Z,33.10
2022-10-08T14:11:10.066Z,33.30
2022-10-08T14:13:38.306Z,33.40
2022-10-08T14:16:07.046Z,33.40
2022-10-08T14:18:36.680Z,33.40
2022-10-08T14:21:05.903Z,33.50
2022-10-08T14:23:34.408Z,33.40
2022-10-08T14:26:02.688Z,33.00
2022-10-08T14:28:31.580Z,32.60
2022-10-08T14:30:59.925Z,32.30
2022-10-08T14:33:28.378Z,32.30
2022-10-08T14:35:57.993Z,32.30
2022-10-08T14:38:26.191Z,32.40
2022-10-08T14:40:54.456Z,32.30
2022-10-08T14:43:26.909Z,32.40
2022-10-08T14:45:56.093Z,32.40
2022-10-08T14:48:24.376Z,32.10
2022-10-08T14:50:52.646Z,32.00
2022-10-08T14:53:22.284Z,32.00
2022-10-08T14:56:11.136Z,32.10
2022-10-08T14:58:38.850Z,32.10
2022-10-08T15:01:07.606Z,32.30
2022-10-08T15:03:35.981Z,32.40
2022-10-08T15:06:04.430Z,32.50
2022-10-08T15:08:35.165Z,32.60
2022-10-08T15:11:04.462Z,32.70
2022-10-08T15:13:34.731Z,32.70
2022-10-08T15:16:03.142Z,32.10
2022-10-08T15:18:32.574Z,31.10
2022-10-08T15:21:02.514Z,29.80
2022-10-08T15:23:33.320Z,28.50
2022-10-08T15:26:05.358Z,27.50
2022-10-08T15:28:36.891Z,27.20
2022-10-08T15:31:07.997Z,27.50
2022-10-08T15:33:39.316Z,28.00
2022-10-08T15:36:18.857Z,28.60
2022-10-08T15:38:47.478Z,28.90
2022-10-08T15:41:18.310Z,29.20
2022-10-08T15:43:46.860Z,29.40
2022-10-08T15:46:18.224Z,29.60
2022-10-08T15:48:52.851Z,29.50
2022-10-08T15:51:21.260Z,29.20
2022-10-08T15:53:49.849Z,29.10
2022-10-08T15:56:19.541Z,29.00
2022-10-08T15:58:51.723Z,29.00
2022-10-08T16:01:23.151Z,29.10
2022-10-08T16:03:53.734Z,29.00
2022-10-08T16:06:24.174Z,28.70
2022-10-08T16:08:52.875Z,28.40
2022-10-08T16:11:24.295Z,28.10
2022-10-08T16:13:54.199Z,27.80
2022-10-08T16:16:22.917Z,27.30
2022-10-08T16:18:55.970Z,26.40
2022-10-08T16:21:24.685Z,25.60
2022-10-08T16:23:53.326Z,24.60
2022-10-08T16:26:23.257Z,23.70
2022-10-08T16:28:55.100Z,23.00
2022-10-08T16:31:24.074Z,22.30
2022-10-08T16:33:56.171Z,21.70
2022-10-08T16:36:25.259Z,21.20
2022-10-08T16:38:54.114Z,20.80
2022-10-08T16:41:26.330Z,20.50
2022-10-08T16:43:56.019Z,20.20
2022-10-08T16:46:26.314Z,19.90
2022-10-08T16:48:56.232Z,19.60
2022-10-08T16:51:26.849Z,19.40
2022-10-08T16:53:57.833Z,19.20
2022-10-08T16:56:29.292Z,18.90
2022-10-08T16:58:58.855Z,18.60
2022-10-08T17:01:27.935Z,18.50
2022-10-08T17:03:56.536Z,18.30
2022-10-08T17:06:26.456Z,18.10
2022-10-08T17:08:55.577Z,17.90
2022-10-08T17:11:23.882Z,17.70
2022-10-08T17:13:55.640Z,17.50
2022-10-08T17:16:26.196Z,17.30
2022-10-08T17:18:56.357Z,17.10
2022-10-08T17:21:25.089Z,17.00
2022-10-08T17:23:53.682Z,16.80
2022-10-08T17:26:24.426Z,16.70
2022-10-08T17:28:55.074Z,16.60
2022-10-08T17:31:26.131Z,16.50
2022-10-08T17:33:54.990Z,16.30
2022-10-08T17:36:26.020Z,16.20
2022-10-08T17:38:55.966Z,16.10
2022-10-08T17:41:26.355Z,16.00
2022-10-08T17:43:57.329Z,15.90
2022-10-08T17:46:27.254Z,15.70
2022-10-08T17:48:56.179Z,15.60
2022-10-08T17:51:28.030Z,15.50
2022-10-08T17:53:58.632Z,15.30
2022-10-08T17:56:27.675Z,15.20
2022-10-08T17:58:57.630Z,15.10
2022-10-08T18:01:27.428Z,15.00
2022-10-08T18:03:57.451Z,14.90
2022-10-08T18:06:26.773Z,14.80
2022-10-08T18:08:56.026Z,14.70
2022-10-08T18:11:25.252Z,14.60
2022-10-08T18:13:54.290Z,14.50
2022-10-08T18:16:25.296Z,14.40
2022-10-08T18:18:53.637Z,14.40
2022-10-08T18:21:22.151Z,14.30
2022-10-08T18:23:50.840Z,14.20
2022-10-08T18:26:21.043Z,14.10
2022-10-08T18:28:51.564Z,14.10
2022-10-08T18:31:21.611Z,14.00
2022-10-08T18:33:55.502Z,13.90
2022-10-08T18:36:25.965Z,13.80
2022-10-08T18:38:56.761Z,13.80
2022-10-08T18:41:27.363Z,13.70
2022-10-08T18:43:59.439Z,13.60
2022-10-08T18:46:29.053Z,13.50
2022-10-08T18:48:59.512Z,13.40
2022-10-08T18:51:30.015Z,13.40
2022-10-08T18:53:59.548Z,13.30
2022-10-08T18:56:30.424Z,13.20
2022-10-08T18:58:59.816Z,13.20
2022-10-08T19:01:31.152Z,13.10
2022-10-08T19:04:03.012Z,13.00
2022-10-08T19:06:37.319Z,13.00
2022-10-08T19:09:06.966Z,12.90
2022-10-08T19:11:44.117Z,12.80
2022-10-08T19:14:15.472Z,12.80
2022-10-08T19:16:45.225Z,12.70
2022-10-08T19:19:17.123Z,12.70
2022-10-08T19:21:46.147Z,12.60
2022-10-08T19:24:16.443Z,12.60
2022-10-08T19:26:45.779Z,12.60
2022-10-08T19:29:17.294Z,12.60
2022-10-08T19:31:48.725Z,12.50
2022-10-08T19:34:20.667Z,12.50
2022-10-08T19:36:50.008Z,12.50
2022-10-08T19:39:20.793Z,12.50
2022-10-08T19:41:49.760Z,12.60
2022-10-08T19:44:18.721Z,12.70
2022-10-08T19:46:47.753Z,12.80
2022-10-08T19:49:16.487Z,12.90
2022-10-08T19:51:46.321Z,12.90
2022-10-08T19:54:15.723Z,13.00
2022-10-08T19:56:44.476Z,13.00
2022-10-08T19:59:13.722Z,12.90
2022-10-08T20:01:42.807Z,12.80
2022-10-08T20:04:13.688Z,12.70
2022-10-08T20:06:43.612Z,12.60
2022-10-08T20:09:14.461Z,12.50
2022-10-08T20:11:44.439Z,12.40
2022-10-08T20:14:13.415Z,12.30
2022-10-08T20:16:43.282Z,12.20
2022-10-08T20:19:16.957Z,12.10
2022-10-08T20:21:45.728Z,12.00
2022-10-08T20:24:16.016Z,11.90
2022-10-08T20:26:45.282Z,11.90
2022-10-08T20:29:16.460Z,11.80
2022-10-08T20:31:46.363Z,11.70
2022-10-08T20:34:17.691Z,11.60
2022-10-08T20:36:47.032Z,11.60
2022-10-08T20:39:18.728Z,11.50
2022-10-08T20:41:48.814Z,11.50
2022-10-08T20:44:18.034Z,11.40
2022-10-08T20:46:46.737Z,11.40
2022-10-08T20:49:15.727Z,11.30
2022-10-08T20:51:45.767Z,11.30
2022-10-08T20:54:16.994Z,11.30
2022-10-08T20:56:46.103Z,11.30
2022-10-08T20:59:17.265Z,11.20
2022-10-08T21:01:46.136Z,11.20
2022-10-08T21:04:14.777Z,11.20
2022-10-08T21:06:44.990Z,11.10
2022-10-08T21:09:14.160Z,11.10
2022-10-08T21:11:45.894Z,11.00
2022-10-08T21:14:17.603Z,11.00
2022-10-08T21:16:46.653Z,10.90
2022-10-08T21:19:18.819Z,10.90
2022-10-08T21:21:48.281Z,10.90
2022-10-08T21:24:16.917Z,10.80
2022-10-08T21:26:46.727Z,10.80
2022-10-08T21:29:15.593Z,10.80
2022-10-08T21:31:44.163Z,10.70
2022-10-08T21:34:13.506Z,10.70
2022-10-08T21:36:42.954Z,10.70
2022-10-08T21:39:15.828Z,10.60
2022-10-08T21:41:44.510Z,10.60
2022-10-08T21:44:14.798Z,10.60
2022-10-08T21:46:44.766Z,10.50
2022-10-08T21:49:15.297Z,10.50
2022-10-08T21:51:44.202Z,10.50
2022-10-08T21:54:13.142Z,10.40
2022-10-08T21:56:42.716Z,10.50
2022-10-08T21:59:16.230Z,10.40
2022-10-08T22:01:45.903Z,10.40
2022-10-08T22:04:16.472Z,10.30
2022-10-08T22:06:46.173Z,10.30
2022-10-08T22:09:19.781Z,10.30
2022-10-08T22:11:49.082Z,10.30
2022-10-08T22:14:19.155Z,10.20
2022-10-08T22:16:47.926Z,10.30
2022-10-08T22:19:16.959Z,10.20
2022-10-08T22:21:45.655Z,10.20
2022-10-08T22:24:14.522Z,10.20
2022-10-08T22:26:45.079Z,10.10
2022-10-08T22:29:13.472Z,10.10
2022-10-08T22:31:43.204Z,10.00
2022-10-08T22:34:11.485Z,9.90
2022-10-08T22:36:41.323Z,9.90
2022-10-08T22:39:10.344Z,9.80
2022-10-08T22:41:38.580Z,9.70
2022-10-08T22:44:07.115Z,9.70
2022-10-08T22:46:38.213Z,9.60
2022-10-08T22:49:10.161Z,9.60
2022-10-08T22:51:39.260Z,9.60
2022-10-08T22:54:07.938Z,9.50
2022-10-08T22:56:36.261Z,9.50
2022-10-08T22:59:05.103Z,9.50
2022-10-08T23:01:33.478Z,9.40
2022-10-08T23:04:01.821Z,9.40
2022-10-08T23:06:33.271Z,9.40
2022-10-08T23:09:03.072Z,9.30
2022-10-08T23:11:32.719Z,9.30
2022-10-08T23:14:01.791Z,9.20
2022-10-08T23:16:32.350Z,9.20
2022-10-08T23:19:02.608Z,9.20
2022-10-08T23:21:32.986Z,9.20
2022-10-08T23:24:01.446Z,9.20
2022-10-08T23:26:31.405Z,9.20
2022-10-08T23:29:01.202Z,9.20
2022-10-08T23:31:31.266Z,9.20
2022-10-08T23:34:00.518Z,9.10
2022-10-08T23:36:32.783Z,9.10
2022-10-08T23:39:01.811Z,9.10
2022-10-08T23:41:30.297Z,9.10
2022-10-08T23:43:59.095Z,9.10
2022-10-08T23:46:29.580Z,9.00
2022-10-08T23:48:59.434Z,9.10
2022-10-08T23:51:29.496Z,9.00
2022-10-08T23:54:01.052Z,9.00
2022-10-08T23:56:30.159Z,9.00
2022-10-08T23:58:58.464Z,9.00
